sensor_id;sensor_type;location;lat;lon;timestamp;pressure;altitude;pressure_sealevel;temperature;humidity
49455;BME280;69710;64.656;21.218;2023-06-19T00:02:22;101930.46;;;16.06;65.87
49455;BME280;69710;64.656;21.218;2023-06-19T00:04:52;101929.68;;;15.83;66.67
49455;BME280;69710;64.656;21.218;2023-06-19T00:07:20;101932.21;;;15.60;67.44
49455;BME280;69710;64.656;21.218;2023-06-19T00:09:50;101929.25;;;15.90;67.60
49455;BME280;69710;64.656;21.218;2023-06-19T00:12:17;101929.67;;;15.81;67.83
49455;BME280;69710;64.656;21.218;2023-06-19T00:14:45;101929.84;;;15.74;68.15
49455;BME280;69710;64.656;21.218;2023-06-19T00:17:13;101929.83;;;15.75;68.36
49455;BME280;69710;64.656;21.218;2023-06-19T00:19:41;101931.43;;;15.48;68.60
49455;BME280;69710;64.656;21.218;2023-06-19T00:22:09;101933.39;;;15.72;68.61
49455;BME280;69710;64.656;21.218;2023-06-19T00:24:37;101932.95;;;15.66;69.08
49455;BME280;69710;64.656;21.218;2023-06-19T00:27:05;101933.10;;;15.52;69.49
49455;BME280;69710;64.656;21.218;2023-06-19T00:29:34;101932.57;;;15.84;69.03
49455;BME280;69710;64.656;21.218;2023-06-19T00:32:02;101931.32;;;15.60;69.87
49455;BME280;69710;64.656;21.218;2023-06-19T00:34:31;101929.24;;;15.80;69.44
49455;BME280;69710;64.656;21.218;2023-06-19T00:36:59;101931.74;;;15.47;69.43
49455;BME280;69710;64.656;21.218;2023-06-19T00:39:26;101932.33;;;15.48;70.22
49455;BME280;69710;64.656;21.218;2023-06-19T00:41:54;101934.72;;;15.17;69.87
49455;BME280;69710;64.656;21.218;2023-06-19T00:46:37;101933.39;;;15.50;69.69
49455;BME280;69710;64.656;21.218;2023-06-19T00:49:06;101937.97;;;16.09;68.96
49455;BME280;69710;64.656;21.218;2023-06-19T00:51:34;101936.73;;;16.00;68.64
49455;BME280;69710;64.656;21.218;2023-06-19T00:54:03;101938.10;;;16.05;68.43
49455;BME280;69710;64.656;21.218;2023-06-19T00:56:31;101934.57;;;16.75;67.91
49455;BME280;69710;64.656;21.218;2023-06-19T00:59:00;101935.56;;;17.12;66.91
49455;BME280;69710;64.656;21.218;2023-06-19T01:01:29;101941.00;;;17.63;65.86
49455;BME280;69710;64.656;21.218;2023-06-19T01:03:57;101936.50;;;18.26;64.53
49455;BME280;69710;64.656;21.218;2023-06-19T01:06:30;101939.83;;;18.87;63.40
49455;BME280;69710;64.656;21.218;2023-06-19T01:09:04;101940.14;;;19.49;61.20
49455;BME280;69710;64.656;21.218;2023-06-19T01:11:39;101945.15;;;20.05;59.61
49455;BME280;69710;64.656;21.218;2023-06-19T01:14:16;101946.47;;;19.25;58.35
49455;BME280;69710;64.656;21.218;2023-06-19T01:16:46;101943.98;;;20.80;56.89
49455;BME280;69710;64.656;21.218;2023-06-19T01:19:18;101940.70;;;21.28;54.73
49455;BME280;69710;64.656;21.218;2023-06-19T01:21:46;101938.08;;;21.71;53.48
49455;BME280;69710;64.656;21.218;2023-06-19T01:24:15;101937.17;;;22.45;52.72
49455;BME280;69710;64.656;21.218;2023-06-19T01:26:43;101931.12;;;22.67;51.62
49455;BME280;69710;64.656;21.218;2023-06-19T01:29:11;101933.74;;;23.64;49.58
49455;BME280;69710;64.656;21.218;2023-06-19T01:31:52;101932.17;;;23.69;48.32
49455;BME280;69710;64.656;21.218;2023-06-19T01:34:22;101927.81;;;24.38;46.45
49455;BME280;69710;64.656;21.218;2023-06-19T01:36:54;101928.19;;;24.90;45.30
49455;BME280;69710;64.656;21.218;2023-06-19T01:39:22;101923.51;;;25.55;43.79
49455;BME280;69710;64.656;21.218;2023-06-19T01:41:51;101929.01;;;25.83;42.49
49455;BME280;69710;64.656;21.218;2023-06-19T01:44:19;101926.26;;;25.24;42.56
49455;BME280;69710;64.656;21.218;2023-06-19T01:46:48;101929.37;;;25.62;41.39
49455;BME280;69710;64.656;21.218;2023-06-19T01:49:16;101924.58;;;25.41;40.78
49455;BME280;69710;64.656;21.218;2023-06-19T01:51:44;101926.72;;;25.96;39.87
49455;BME280;69710;64.656;21.218;2023-06-19T01:54:12;101929.04;;;25.71;39.46
49455;BME280;69710;64.656;21.218;2023-06-19T01:56:40;101927.74;;;24.88;40.57
49455;BME280;69710;64.656;21.218;2023-06-19T01:59:08;101930.29;;;25.42;41.12
49455;BME280;69710;64.656;21.218;2023-06-19T02:01:36;101931.55;;;23.23;46.18
49455;BME280;69710;64.656;21.218;2023-06-19T02:04:04;101935.68;;;21.59;50.31
49455;BME280;69710;64.656;21.218;2023-06-19T02:06:32;101936.40;;;20.26;55.86
49455;BME280;69710;64.656;21.218;2023-06-19T02:08:59;101935.81;;;19.31;60.31
49455;BME280;69710;64.656;21.218;2023-06-19T02:11:27;101937.54;;;20.85;58.47
49455;BME280;69710;64.656;21.218;2023-06-19T02:13:55;101931.02;;;20.40;59.32
49455;BME280;69710;64.656;21.218;2023-06-19T02:16:23;101925.83;;;22.26;53.50
49455;BME280;69710;64.656;21.218;2023-06-19T02:18:52;101924.94;;;21.56;51.61
49455;BME280;69710;64.656;21.218;2023-06-19T02:21:19;101923.17;;;22.00;49.66
49455;BME280;69710;64.656;21.218;2023-06-19T02:23:47;101922.85;;;21.43;49.99
49455;BME280;69710;64.656;21.218;2023-06-19T02:26:15;101920.53;;;21.16;51.41
49455;BME280;69710;64.656;21.218;2023-06-19T02:28:44;101921.40;;;20.41;53.08
49455;BME280;69710;64.656;21.218;2023-06-19T02:31:11;101922.25;;;20.68;53.06
49455;BME280;69710;64.656;21.218;2023-06-19T02:33:39;101918.88;;;20.05;54.90
49455;BME280;69710;64.656;21.218;2023-06-19T02:36:07;101920.17;;;20.11;58.52
49455;BME280;69710;64.656;21.218;2023-06-19T02:38:35;101922.20;;;20.24;59.37
49455;BME280;69710;64.656;21.218;2023-06-19T02:41:02;101919.53;;;19.43;62.07
49455;BME280;69710;64.656;21.218;2023-06-19T02:43:30;101917.40;;;20.47;56.90
49455;BME280;69710;64.656;21.218;2023-06-19T02:45:57;101916.24;;;20.82;56.78
49455;BME280;69710;64.656;21.218;2023-06-19T02:48:25;101909.09;;;21.09;54.19
49455;BME280;69710;64.656;21.218;2023-06-19T02:50:53;101910.45;;;22.03;52.42
49455;BME280;69710;64.656;21.218;2023-06-19T02:53:21;101906.25;;;22.32;51.10
49455;BME280;69710;64.656;21.218;2023-06-19T02:55:48;101901.33;;;22.81;49.98
49455;BME280;69710;64.656;21.218;2023-06-19T02:58:16;101902.32;;;22.69;49.23
49455;BME280;69710;64.656;21.218;2023-06-19T03:00:45;101899.37;;;23.72;48.39
49455;BME280;69710;64.656;21.218;2023-06-19T03:03:12;101899.37;;;23.64;48.38
49455;BME280;69710;64.656;21.218;2023-06-19T03:05:40;101896.10;;;23.76;47.29
49455;BME280;69710;64.656;21.218;2023-06-19T03:08:08;101892.45;;;23.92;46.82
49455;BME280;69710;64.656;21.218;2023-06-19T03:10:36;101893.23;;;23.63;47.08
49455;BME280;69710;64.656;21.218;2023-06-19T03:13:04;101891.32;;;24.29;46.47
49455;BME280;69710;64.656;21.218;2023-06-19T03:15:32;101889.47;;;25.22;45.48
49455;BME280;69710;64.656;21.218;2023-06-19T03:18:00;101890.71;;;25.04;45.67
49455;BME280;69710;64.656;21.218;2023-06-19T03:20:28;101889.62;;;25.92;43.99
49455;BME280;69710;64.656;21.218;2023-06-19T03:22:56;101890.09;;;26.63;42.74
49455;BME280;69710;64.656;21.218;2023-06-19T03:25:24;101889.13;;;24.69;44.63
49455;BME280;69710;64.656;21.218;2023-06-19T03:27:52;101890.78;;;25.67;41.92
49455;BME280;69710;64.656;21.218;2023-06-19T03:30:20;101890.24;;;25.43;42.37
49455;BME280;69710;64.656;21.218;2023-06-19T03:32:48;101890.61;;;22.97;49.30
49455;BME280;69710;64.656;21.218;2023-06-19T03:35:15;101894.68;;;22.08;53.22
49455;BME280;69710;64.656;21.218;2023-06-19T03:37:44;101896.56;;;22.99;53.88
49455;BME280;69710;64.656;21.218;2023-06-19T03:40:12;101892.29;;;24.34;51.01
49455;BME280;69710;64.656;21.218;2023-06-19T03:42:39;101893.06;;;24.57;50.39
49455;BME280;69710;64.656;21.218;2023-06-19T03:45:08;101891.92;;;25.85;50.57
49455;BME280;69710;64.656;21.218;2023-06-19T03:47:36;101885.52;;;26.97;47.95
49455;BME280;69710;64.656;21.218;2023-06-19T03:50:09;101882.89;;;26.82;45.14
49455;BME280;69710;64.656;21.218;2023-06-19T03:52:37;101882.25;;;27.82;44.34
49455;BME280;69710;64.656;21.218;2023-06-19T03:55:05;101881.76;;;27.08;44.10
49455;BME280;69710;64.656;21.218;2023-06-19T03:57:33;101878.14;;;28.01;40.86
49455;BME280;69710;64.656;21.218;2023-06-19T04:00:01;101877.72;;;28.81;39.24
49455;BME280;69710;64.656;21.218;2023-06-19T04:02:30;101880.89;;;26.17;41.69
49455;BME280;69710;64.656;21.218;2023-06-19T04:04:58;101876.33;;;28.82;39.56
49455;BME280;69710;64.656;21.218;2023-06-19T04:07:27;101876.68;;;28.04;40.27
49455;BME280;69710;64.656;21.218;2023-06-19T04:09:55;101876.90;;;27.63;40.69
49455;BME280;69710;64.656;21.218;2023-06-19T04:12:23;101875.83;;;26.46;41.87
49455;BME280;69710;64.656;21.218;2023-06-19T04:14:51;101878.95;;;26.25;45.45
49455;BME280;69710;64.656;21.218;2023-06-19T04:17:19;101870.08;;;26.73;43.30
49455;BME280;69710;64.656;21.218;2023-06-19T04:19:47;101869.37;;;28.99;39.57
49455;BME280;69710;64.656;21.218;2023-06-19T04:22:15;101868.23;;;29.21;39.23
49455;BME280;69710;64.656;21.218;2023-06-19T04:24:43;101866.76;;;28.35;37.23
49455;BME280;69710;64.656;21.218;2023-06-19T04:27:11;101867.94;;;28.54;36.18
49455;BME280;69710;64.656;21.218;2023-06-19T04:29:39;101866.63;;;28.28;36.09
49455;BME280;69710;64.656;21.218;2023-06-19T04:32:07;101866.97;;;28.60;35.85
49455;BME280;69710;64.656;21.218;2023-06-19T04:34:35;101867.68;;;27.96;35.99
49455;BME280;69710;64.656;21.218;2023-06-19T04:37:03;101872.64;;;25.69;39.05
49455;BME280;69710;64.656;21.218;2023-06-19T04:39:31;101869.75;;;26.21;38.41
49455;BME280;69710;64.656;21.218;2023-06-19T04:41:59;101868.26;;;26.72;38.01
49455;BME280;69710;64.656;21.218;2023-06-19T04:44:27;101872.81;;;23.59;42.48
49455;BME280;69710;64.656;21.218;2023-06-19T04:46:55;101874.41;;;24.23;42.77
49455;BME280;69710;64.656;21.218;2023-06-19T04:49:22;101870.90;;;23.21;44.90
49455;BME280;69710;64.656;21.218;2023-06-19T04:51:50;101874.51;;;23.79;44.28
49455;BME280;69710;64.656;21.218;2023-06-19T04:54:18;101876.90;;;24.09;45.22
49455;BME280;69710;64.656;21.218;2023-06-19T04:56:46;101879.04;;;26.61;41.09
49455;BME280;69710;64.656;21.218;2023-06-19T04:59:14;101881.54;;;24.55;44.70
49455;BME280;69710;64.656;21.218;2023-06-19T05:01:42;101883.39;;;25.38;42.33
49455;BME280;69710;64.656;21.218;2023-06-19T05:04:10;101880.36;;;25.06;43.76
49455;BME280;69710;64.656;21.218;2023-06-19T05:06:37;101883.91;;;23.08;48.84
49455;BME280;69710;64.656;21.218;2023-06-19T05:09:05;101883.06;;;25.55;45.23
49455;BME280;69710;64.656;21.218;2023-06-19T05:11:33;101881.87;;;25.26;42.94
49455;BME280;69710;64.656;21.218;2023-06-19T05:14:01;101883.35;;;25.04;44.68
49455;BME280;69710;64.656;21.218;2023-06-19T05:16:28;101881.53;;;26.38;42.20
49455;BME280;69710;64.656;21.218;2023-06-19T05:18:56;101880.74;;;24.22;46.18
49455;BME280;69710;64.656;21.218;2023-06-19T05:21:24;101881.91;;;22.19;50.08
49455;BME280;69710;64.656;21.218;2023-06-19T05:23:52;101885.49;;;21.76;55.65
49455;BME280;69710;64.656;21.218;2023-06-19T05:26:20;101884.73;;;22.06;56.73
49455;BME280;69710;64.656;21.218;2023-06-19T05:28:47;101883.02;;;21.68;56.29
49455;BME280;69710;64.656;21.218;2023-06-19T05:31:15;101884.23;;;20.98;59.20
49455;BME280;69710;64.656;21.218;2023-06-19T05:33:42;101883.13;;;20.41;63.66
49455;BME280;69710;64.656;21.218;2023-06-19T05:36:10;101887.64;;;20.21;65.77
49455;BME280;69710;64.656;21.218;2023-06-19T05:38:38;101886.08;;;20.71;63.98
49455;BME280;69710;64.656;21.218;2023-06-19T05:41:05;101884.56;;;21.02;63.30
49455;BME280;69710;64.656;21.218;2023-06-19T05:43:33;101887.74;;;21.57;61.45
49455;BME280;69710;64.656;21.218;2023-06-19T05:46:00;101887.32;;;20.83;63.46
49455;BME280;69710;64.656;21.218;2023-06-19T05:48:28;101888.52;;;21.13;63.71
49455;BME280;69710;64.656;21.218;2023-06-19T05:50:56;101885.63;;;20.50;65.46
49455;BME280;69710;64.656;21.218;2023-06-19T05:53:24;101886.37;;;20.88;64.80
49455;BME280;69710;64.656;21.218;2023-06-19T05:55:52;101889.46;;;20.60;64.59
49455;BME280;69710;64.656;21.218;2023-06-19T05:58:20;101893.31;;;20.67;64.64
49455;BME280;69710;64.656;21.218;2023-06-19T06:00:47;101896.04;;;20.27;67.82
49455;BME280;69710;64.656;21.218;2023-06-19T06:03:15;101903.95;;;20.80;75.66
49455;BME280;69710;64.656;21.218;2023-06-19T06:05:42;101903.91;;;21.04;74.04
49455;BME280;69710;64.656;21.218;2023-06-19T06:08:10;101898.78;;;21.63;68.57
49455;BME280;69710;64.656;21.218;2023-06-19T06:10:37;101892.51;;;22.31;64.90
49455;BME280;69710;64.656;21.218;2023-06-19T06:13:05;101897.86;;;22.37;63.83
49455;BME280;69710;64.656;21.218;2023-06-19T06:15:32;101899.09;;;23.34;64.15
49455;BME280;69710;64.656;21.218;2023-06-19T06:18:00;101899.43;;;23.11;61.11
49455;BME280;69710;64.656;21.218;2023-06-19T06:20:28;101901.47;;;22.41;58.96
49455;BME280;69710;64.656;21.218;2023-06-19T06:22:56;101896.20;;;22.53;58.15
49455;BME280;69710;64.656;21.218;2023-06-19T06:25:24;101894.62;;;23.40;58.08
49455;BME280;69710;64.656;21.218;2023-06-19T06:27:52;101893.21;;;23.09;55.14
49455;BME280;69710;64.656;21.218;2023-06-19T06:30:20;101892.17;;;23.07;54.78
49455;BME280;69710;64.656;21.218;2023-06-19T06:32:47;101894.08;;;21.84;55.13
49455;BME280;69710;64.656;21.218;2023-06-19T06:35:15;101890.82;;;22.47;55.47
49455;BME280;69710;64.656;21.218;2023-06-19T06:37:44;101890.40;;;22.40;55.27
49455;BME280;69710;64.656;21.218;2023-06-19T06:40:11;101891.71;;;22.20;57.70
49455;BME280;69710;64.656;21.218;2023-06-19T06:42:39;101888.63;;;21.94;59.00
49455;BME280;69710;64.656;21.218;2023-06-19T06:45:08;101888.89;;;21.87;56.67
49455;BME280;69710;64.656;21.218;2023-06-19T06:47:36;101891.11;;;22.30;55.42
49455;BME280;69710;64.656;21.218;2023-06-19T06:50:05;101891.77;;;22.79;52.16
49455;BME280;69710;64.656;21.218;2023-06-19T06:52:34;101892.26;;;22.63;52.02
49455;BME280;69710;64.656;21.218;2023-06-19T06:55:02;101887.74;;;23.13;52.39
49455;BME280;69710;64.656;21.218;2023-06-19T06:57:29;101887.65;;;23.01;51.60
49455;BME280;69710;64.656;21.218;2023-06-19T06:59:58;101889.27;;;22.83;51.30
49455;BME280;69710;64.656;21.218;2023-06-19T07:02:25;101886.12;;;22.61;50.63
49455;BME280;69710;64.656;21.218;2023-06-19T07:04:54;101886.41;;;22.73;49.47
49455;BME280;69710;64.656;21.218;2023-06-19T07:07:22;101882.40;;;23.03;49.42
49455;BME280;69710;64.656;21.218;2023-06-19T07:09:49;101878.58;;;23.43;49.09
49455;BME280;69710;64.656;21.218;2023-06-19T07:12:17;101877.83;;;23.19;49.06
49455;BME280;69710;64.656;21.218;2023-06-19T07:14:45;101880.15;;;22.73;49.78
49455;BME280;69710;64.656;21.218;2023-06-19T07:17:13;101882.60;;;22.77;49.29
49455;BME280;69710;64.656;21.218;2023-06-19T07:19:41;101875.19;;;23.49;48.35
49455;BME280;69710;64.656;21.218;2023-06-19T07:22:08;101873.25;;;23.04;49.15
49455;BME280;69710;64.656;21.218;2023-06-19T07:24:36;101878.03;;;22.24;56.06
49455;BME280;69710;64.656;21.218;2023-06-19T07:27:04;101876.99;;;21.13;62.35
49455;BME280;69710;64.656;21.218;2023-06-19T07:29:32;101878.07;;;21.84;65.26
49455;BME280;69710;64.656;21.218;2023-06-19T07:32:00;101880.30;;;21.83;57.74
49455;BME280;69710;64.656;21.218;2023-06-19T07:34:28;101876.21;;;22.88;58.45
49455;BME280;69710;64.656;21.218;2023-06-19T07:36:56;101875.04;;;24.02;54.12
49455;BME280;69710;64.656;21.218;2023-06-19T07:39:24;101875.60;;;24.31;55.57
49455;BME280;69710;64.656;21.218;2023-06-19T07:41:52;101872.51;;;23.95;58.96
49455;BME280;69710;64.656;21.218;2023-06-19T07:44:20;101877.48;;;22.75;66.88
49455;BME280;69710;64.656;21.218;2023-06-19T07:46:48;101874.52;;;23.03;67.57
49455;BME280;69710;64.656;21.218;2023-06-19T07:49:16;101873.70;;;23.28;60.90
49455;BME280;69710;64.656;21.218;2023-06-19T07:51:44;101874.34;;;23.30;60.16
49455;BME280;69710;64.656;21.218;2023-06-19T07:54:12;101872.07;;;23.18;58.90
49455;BME280;69710;64.656;21.218;2023-06-19T07:56:40;101869.61;;;23.03;59.08
49455;BME280;69710;64.656;21.218;2023-06-19T07:59:08;101866.98;;;23.00;58.75
49455;BME280;69710;64.656;21.218;2023-06-19T08:01:36;101866.96;;;22.93;57.73
49455;BME280;69710;64.656;21.218;2023-06-19T08:04:04;101867.02;;;23.13;58.03
49455;BME280;69710;64.656;21.218;2023-06-19T08:06:31;101866.00;;;22.98;57.76
49455;BME280;69710;64.656;21.218;2023-06-19T08:08:59;101869.23;;;23.44;57.32
49455;BME280;69710;64.656;21.218;2023-06-19T08:11:27;101866.14;;;23.52;56.48
49455;BME280;69710;64.656;21.218;2023-06-19T08:13:55;101864.03;;;23.38;56.00
49455;BME280;69710;64.656;21.218;2023-06-19T08:16:25;101863.08;;;23.76;55.80
49455;BME280;69710;64.656;21.218;2023-06-19T08:18:52;101862.13;;;23.16;57.87
49455;BME280;69710;64.656;21.218;2023-06-19T08:21:20;101860.68;;;23.12;57.78
49455;BME280;69710;64.656;21.218;2023-06-19T08:23:48;101860.05;;;23.19;58.32
49455;BME280;69710;64.656;21.218;2023-06-19T08:26:15;101858.87;;;22.95;57.07
49455;BME280;69710;64.656;21.218;2023-06-19T08:28:43;101857.88;;;22.69;57.43
49455;BME280;69710;64.656;21.218;2023-06-19T08:31:11;101853.70;;;23.78;54.90
49455;BME280;69710;64.656;21.218;2023-06-19T08:33:39;101853.66;;;23.49;55.52
49455;BME280;69710;64.656;21.218;2023-06-19T08:36:07;101852.92;;;23.98;54.08
49455;BME280;69710;64.656;21.218;2023-06-19T08:38:34;101850.42;;;23.58;52.51
49455;BME280;69710;64.656;21.218;2023-06-19T08:41:02;101849.17;;;24.08;51.99
49455;BME280;69710;64.656;21.218;2023-06-19T08:43:31;101849.60;;;24.12;50.94
49455;BME280;69710;64.656;21.218;2023-06-19T08:46:09;101846.47;;;24.01;52.02
49455;BME280;69710;64.656;21.218;2023-06-19T08:48:38;101846.79;;;23.98;52.15
49455;BME280;69710;64.656;21.218;2023-06-19T08:51:06;101845.68;;;24.12;50.46
49455;BME280;69710;64.656;21.218;2023-06-19T08:53:36;101844.43;;;24.12;48.88
49455;BME280;69710;64.656;21.218;2023-06-19T08:56:04;101842.12;;;23.93;48.91
49455;BME280;69710;64.656;21.218;2023-06-19T08:58:32;101841.89;;;24.68;47.80
49455;BME280;69710;64.656;21.218;2023-06-19T09:01:00;101843.52;;;25.09;46.44
49455;BME280;69710;64.656;21.218;2023-06-19T09:03:28;101841.13;;;24.49;46.26
49455;BME280;69710;64.656;21.218;2023-06-19T09:05:55;101841.88;;;24.84;44.85
49455;BME280;69710;64.656;21.218;2023-06-19T09:08:23;101836.70;;;24.83;43.72
49455;BME280;69710;64.656;21.218;2023-06-19T09:10:59;101832.66;;;24.49;43.82
49455;BME280;69710;64.656;21.218;2023-06-19T09:13:28;101834.74;;;25.15;43.70
49455;BME280;69710;64.656;21.218;2023-06-19T09:16:01;101832.34;;;25.00;44.01
49455;BME280;69710;64.656;21.218;2023-06-19T09:18:29;101833.73;;;25.31;43.08
49455;BME280;69710;64.656;21.218;2023-06-19T09:20:58;101836.37;;;24.89;43.00
49455;BME280;69710;64.656;21.218;2023-06-19T09:23:26;101836.38;;;25.19;43.42
49455;BME280;69710;64.656;21.218;2023-06-19T09:25:54;101834.82;;;25.59;42.05
49455;BME280;69710;64.656;21.218;2023-06-19T09:28:23;101834.12;;;25.35;40.25
49455;BME280;69710;64.656;21.218;2023-06-19T09:30:55;101834.81;;;25.57;42.16
49455;BME280;69710;64.656;21.218;2023-06-19T09:33:24;101834.77;;;25.34;43.27
49455;BME280;69710;64.656;21.218;2023-06-19T09:35:54;101833.25;;;24.66;42.75
49455;BME280;69710;64.656;21.218;2023-06-19T09:38:24;101833.18;;;24.48;44.54
49455;BME280;69710;64.656;21.218;2023-06-19T09:40:53;101835.28;;;22.77;49.84
49455;BME280;69710;64.656;21.218;2023-06-19T09:43:25;101834.36;;;22.67;52.45
49455;BME280;69710;64.656;21.218;2023-06-19T09:45:56;101834.74;;;22.45;52.77
49455;BME280;69710;64.656;21.218;2023-06-19T09:48:28;101830.01;;;22.81;54.96
49455;BME280;69710;64.656;21.218;2023-06-19T09:51:01;101835.52;;;22.08;56.69
49455;BME280;69710;64.656;21.218;2023-06-19T09:53:31;101835.66;;;22.05;60.10
49455;BME280;69710;64.656;21.218;2023-06-19T09:55:59;101838.23;;;21.95;63.92
49455;BME280;69710;64.656;21.218;2023-06-19T09:58:27;101838.20;;;21.81;64.65
49455;BME280;69710;64.656;21.218;2023-06-19T10:00:57;101840.70;;;21.63;66.26
49455;BME280;69710;64.656;21.218;2023-06-19T10:03:31;101840.62;;;22.10;64.42
49455;BME280;69710;64.656;21.218;2023-06-19T10:06:00;101835.55;;;22.25;62.03
49455;BME280;69710;64.656;21.218;2023-06-19T10:08:29;101833.95;;;22.47;60.24
49455;BME280;69710;64.656;21.218;2023-06-19T10:10:58;101842.61;;;21.02;63.12
49455;BME280;69710;64.656;21.218;2023-06-19T10:13:34;101838.30;;;21.43;65.62
49455;BME280;69710;64.656;21.218;2023-06-19T10:16:02;101841.27;;;20.32;68.23
49455;BME280;69710;64.656;21.218;2023-06-19T10:18:32;101844.58;;;20.58;72.45
49455;BME280;69710;64.656;21.218;2023-06-19T10:21:00;101837.89;;;20.69;74.07
49455;BME280;69710;64.656;21.218;2023-06-19T10:23:28;101840.78;;;20.47;74.17
49455;BME280;69710;64.656;21.218;2023-06-19T10:25:57;101839.12;;;20.63;74.22
49455;BME280;69710;64.656;21.218;2023-06-19T10:28:26;101841.61;;;20.93;75.52
49455;BME280;69710;64.656;21.218;2023-06-19T10:30:57;101839.63;;;20.84;69.64
49455;BME280;69710;64.656;21.218;2023-06-19T10:33:26;101834.02;;;20.57;70.43
49455;BME280;69710;64.656;21.218;2023-06-19T10:35:55;101836.59;;;20.16;76.08
49455;BME280;69710;64.656;21.218;2023-06-19T10:38:23;101837.83;;;19.85;79.23
49455;BME280;69710;64.656;21.218;2023-06-19T10:40:50;101840.74;;;19.82;82.49
49455;BME280;69710;64.656;21.218;2023-06-19T10:43:20;101841.19;;;19.95;82.53
49455;BME280;69710;64.656;21.218;2023-06-19T10:45:49;101837.38;;;20.04;84.29
49455;BME280;69710;64.656;21.218;2023-06-19T10:48:20;101839.22;;;19.58;86.46
49455;BME280;69710;64.656;21.218;2023-06-19T10:50:48;101831.88;;;19.38;87.70
49455;BME280;69710;64.656;21.218;2023-06-19T10:53:29;101834.53;;;19.42;88.85
49455;BME280;69710;64.656;21.218;2023-06-19T10:55:58;101831.03;;;19.48;89.24
49455;BME280;69710;64.656;21.218;2023-06-19T10:58:26;101833.56;;;19.62;88.98
49455;BME280;69710;64.656;21.218;2023-06-19T11:00:54;101831.12;;;19.78;88.28
49455;BME280;69710;64.656;21.218;2023-06-19T11:03:22;101824.74;;;19.49;87.44
49455;BME280;69710;64.656;21.218;2023-06-19T11:05:50;101826.10;;;19.68;88.60
49455;BME280;69710;64.656;21.218;2023-06-19T11:08:19;101822.11;;;19.85;86.83
49455;BME280;69710;64.656;21.218;2023-06-19T11:10:47;101818.75;;;19.74;87.49
49455;BME280;69710;64.656;21.218;2023-06-19T11:13:16;101814.91;;;19.53;88.05
49455;BME280;69710;64.656;21.218;2023-06-19T11:15:45;101815.18;;;19.74;85.71
49455;BME280;69710;64.656;21.218;2023-06-19T11:18:15;101813.85;;;19.63;87.01
49455;BME280;69710;64.656;21.218;2023-06-19T11:20:45;101808.66;;;19.71;87.19
49455;BME280;69710;64.656;21.218;2023-06-19T11:23:13;101807.25;;;19.92;82.55
49455;BME280;69710;64.656;21.218;2023-06-19T11:25:42;101805.78;;;20.20;85.09
49455;BME280;69710;64.656;21.218;2023-06-19T11:28:12;101808.98;;;20.03;83.61
49455;BME280;69710;64.656;21.218;2023-06-19T11:30:40;101807.14;;;20.10;82.08
49455;BME280;69710;64.656;21.218;2023-06-19T11:33:16;101801.10;;;20.27;80.20
49455;BME280;69710;64.656;21.218;2023-06-19T11:35:47;101803.83;;;20.36;79.16
49455;BME280;69710;64.656;21.218;2023-06-19T11:38:18;101799.27;;;20.00;78.80
49455;BME280;69710;64.656;21.218;2023-06-19T11:40:46;101797.15;;;20.64;76.01
49455;BME280;69710;64.656;21.218;2023-06-19T11:43:24;101795.02;;;20.78;78.43
49455;BME280;69710;64.656;21.218;2023-06-19T11:45:52;101792.90;;;20.86;78.64
49455;BME280;69710;64.656;21.218;2023-06-19T11:48:23;101789.36;;;20.60;79.52
49455;BME280;69710;64.656;21.218;2023-06-19T11:50:52;101786.46;;;20.60;81.48
49455;BME280;69710;64.656;21.218;2023-06-19T11:53:21;101781.56;;;20.81;83.29
49455;BME280;69710;64.656;21.218;2023-06-19T11:55:49;101780.96;;;20.92;84.26
49455;BME280;69710;64.656;21.218;2023-06-19T11:58:18;101778.09;;;20.62;86.18
49455;BME280;69710;64.656;21.218;2023-06-19T12:00:46;101778.60;;;20.58;87.22
49455;BME280;69710;64.656;21.218;2023-06-19T12:03:14;101776.54;;;20.45;86.26
49455;BME280;69710;64.656;21.218;2023-06-19T12:05:42;101776.59;;;20.87;85.97
49455;BME280;69710;64.656;21.218;2023-06-19T12:08:10;101773.85;;;20.92;85.73
49455;BME280;69710;64.656;21.218;2023-06-19T12:10:38;101775.59;;;21.61;86.26
49455;BME280;69710;64.656;21.218;2023-06-19T12:13:05;101773.20;;;21.60;86.71
49455;BME280;69710;64.656;21.218;2023-06-19T12:15:33;101769.15;;;21.33;86.78
49455;BME280;69710;64.656;21.218;2023-06-19T12:18:00;101765.12;;;21.92;83.36
49455;BME280;69710;64.656;21.218;2023-06-19T12:20:29;101764.41;;;21.82;81.26
49455;BME280;69710;64.656;21.218;2023-06-19T12:22:56;101759.66;;;22.48;79.27
49455;BME280;69710;64.656;21.218;2023-06-19T12:25:24;101757.16;;;22.48;75.48
49455;BME280;69710;64.656;21.218;2023-06-19T12:27:51;101755.90;;;22.45;73.30
49455;BME280;69710;64.656;21.218;2023-06-19T12:30:19;101748.42;;;23.13;72.84
49455;BME280;69710;64.656;21.218;2023-06-19T12:32:47;101740.49;;;23.37;67.95
49455;BME280;69710;64.656;21.218;2023-06-19T12:35:14;101741.05;;;23.34;57.78
49455;BME280;69710;64.656;21.218;2023-06-19T12:37:42;101739.76;;;24.02;57.64
49455;BME280;69710;64.656;21.218;2023-06-19T12:40:10;101740.22;;;24.28;56.29
49455;BME280;69710;64.656;21.218;2023-06-19T12:42:38;101736.10;;;24.83;54.07
49455;BME280;69710;64.656;21.218;2023-06-19T12:45:07;101736.61;;;24.90;57.33
49455;BME280;69710;64.656;21.218;2023-06-19T12:47:36;101730.89;;;24.56;56.21
49455;BME280;69710;64.656;21.218;2023-06-19T12:50:05;101732.77;;;25.04;52.34